createdAt,value
2018-04-28T00:00:49.539Z,2.60
2018-04-28T00:01:49.454Z,2.50
2018-04-28T00:02:49.359Z,2.30
2018-04-28T00:03:49.301Z,2.20
2018-04-28T00:04:49.181Z,2.50
2018-04-28T00:05:49.079Z,2.50
2018-04-28T00:06:48.990Z,2.10
2018-04-28T00:07:48.902Z,2.50
2018-04-28T00:08:48.840Z,2.30
2018-04-28T00:09:48.715Z,2.50
2018-04-28T00:10:48.624Z,1.80
2018-04-28T00:11:48.531Z,2.40
2018-04-28T00:12:48.441Z,2.60
2018-04-28T00:13:48.380Z,2.50
2018-04-28T00:14:48.257Z,2.50
2018-04-28T00:15:48.162Z,2.20
2018-04-28T00:16:48.070Z,2.30
2018-04-28T00:17:47.983Z,2.30
2018-04-28T00:18:47.919Z,2.50
2018-04-28T00:19:47.800Z,2.40
2018-04-28T00:20:47.703Z,2.50
2018-04-28T00:21:47.615Z,2.30
2018-04-28T00:22:47.523Z,2.20
2018-04-28T00:23:47.461Z,2.20
2018-04-28T00:24:47.337Z,2.40
2018-04-28T00:25:47.244Z,2.40
2018-04-28T00:26:47.152Z,2.30
2018-04-28T00:27:47.061Z,2.80
2018-04-28T00:28:47.002Z,2.30
2018-04-28T00:29:46.877Z,2.40
2018-04-28T00:30:46.787Z,2.40
2018-04-28T00:31:46.697Z,2.60
2018-04-28T00:32:46.604Z,2.30
2018-04-28T00:33:46.541Z,2.40
2018-04-28T00:34:46.417Z,2.50
2018-04-28T00:35:46.327Z,2.60
2018-04-28T00:36:46.233Z,2.50
2018-04-28T00:37:46.143Z,2.50
2018-04-28T00:38:46.080Z,2.20
2018-04-28T00:39:45.960Z,2.80
2018-04-28T00:40:45.870Z,3.00
2018-04-28T00:41:45.775Z,2.40
2018-04-28T00:42:45.685Z,2.90
2018-04-28T00:43:45.595Z,2.50
2018-04-28T00:44:45.532Z,2.70
2018-04-28T00:45:45.407Z,2.80
2018-04-28T00:46:45.321Z,2.60
2018-04-28T00:47:45.224Z,2.80
2018-04-28T00:48:45.137Z,2.40
2018-04-28T00:49:45.074Z,2.80
2018-04-28T00:50:44.949Z,2.80
2018-04-28T00:51:44.854Z,2.70
2018-04-28T00:52:44.767Z,2.70
2018-04-28T00:53:44.674Z,2.50
2018-04-28T00:54:44.582Z,2.90
2018-04-28T00:55:44.519Z,2.80
2018-04-28T00:56:44.404Z,2.60
2018-04-28T00:57:44.310Z,2.90
2018-04-28T00:58:44.315Z,3.10
2018-04-28T00:59:44.122Z,2.90
2018-04-28T01:00:44.061Z,3.00
2018-04-28T01:01:43.941Z,3.20
2018-04-28T01:02:43.850Z,2.90
2018-04-28T01:03:43.759Z,2.90
2018-04-28T01:04:43.664Z,2.90
2018-04-28T01:05:43.698Z,3.20
2018-04-28T01:06:43.480Z,3.00
2018-04-28T01:07:43.391Z,3.20
2018-04-28T01:08:43.296Z,3.00
2018-04-28T01:09:43.207Z,3.20
2018-04-28T01:10:43.144Z,2.90
2018-04-28T01:11:43.021Z,3.40
2018-04-28T01:12:43.024Z,3.50
2018-04-28T01:13:42.839Z,3.30
2018-04-28T01:14:42.749Z,3.30
2018-04-28T01:15:42.689Z,3.10
2018-04-28T01:16:42.561Z,3.50
2018-04-28T01:17:42.485Z,3.30
2018-04-28T01:18:42.382Z,3.20
2018-04-28T01:19:42.381Z,3.40
2018-04-28T01:20:42.227Z,3.20
2018-04-28T01:21:42.105Z,3.60
2018-04-28T01:22:42.014Z,3.80
2018-04-28T01:23:41.918Z,3.80
2018-04-28T01:24:41.829Z,3.60
2018-04-28T01:25:41.766Z,3.70
2018-04-28T01:26:41.742Z,3.50
2018-04-28T01:27:41.553Z,3.90
2018-04-28T01:28:41.461Z,3.50
2018-04-28T01:29:41.367Z,3.80
2018-04-28T01:30:41.281Z,3.90
2018-04-28T01:31:41.216Z,3.50
2018-04-28T01:32:41.092Z,3.60
2018-04-28T01:33:41.103Z,3.40
2018-04-28T01:34:40.912Z,3.50
2018-04-28T01:35:40.817Z,3.90
2018-04-28T01:36:41.713Z,3.40
2018-04-28T01:37:40.642Z,3.90
2018-04-28T01:38:40.567Z,3.40
2018-04-28T01:39:40.451Z,3.50
2018-04-28T01:40:40.455Z,3.30
2018-04-28T01:41:40.303Z,3.40
2018-04-28T01:42:40.177Z,3.40
2018-04-28T01:43:40.086Z,3.40
2018-04-28T01:44:39.991Z,3.90
2018-04-28T01:45:39.903Z,3.40
2018-04-28T01:46:39.839Z,3.80
2018-04-28T01:47:39.814Z,3.60
2018-04-28T01:48:39.624Z,3.50
2018-04-28T01:49:39.535Z,3.50
2018-04-28T01:50:39.443Z,3.90
2018-04-28T01:51:39.380Z,3.70
2018-04-28T01:52:39.256Z,3.60
2018-04-28T01:53:39.166Z,3.90
2018-04-28T01:54:39.172Z,3.60
2018-04-28T01:55:38.981Z,3.70
2018-04-28T01:56:38.892Z,3.90
2018-04-28T01:57:38.828Z,3.70
2018-04-28T01:58:38.713Z,3.40
2018-04-28T01:59:38.615Z,3.70
2018-04-28T02:00:38.524Z,3.20
2018-04-28T02:01:38.527Z,3.40
2018-04-28T02:02:38.371Z,3.30
2018-04-28T02:03:38.253Z,3.40
2018-04-28T02:04:38.155Z,3.30
2018-04-28T02:05:38.065Z,3.10
2018-04-28T02:06:37.973Z,3.50
2018-04-28T02:07:37.912Z,3.20
2018-04-28T02:08:37.886Z,3.50
2018-04-28T02:09:37.696Z,3.40
2018-04-28T02:10:37.606Z,3.30
2018-04-28T02:11:37.512Z,3.20
2018-04-28T02:12:37.422Z,3.40
2018-04-28T02:13:37.359Z,3.50
2018-04-28T02:14:37.241Z,3.70
2018-04-28T02:15:37.243Z,3.70
2018-04-28T02:16:37.053Z,3.70
2018-04-28T02:17:36.962Z,4.10
2018-04-28T02:18:36.900Z,4.20
2018-04-28T02:19:36.777Z,4.60
2018-04-28T02:20:36.698Z,4.80
2018-04-28T02:21:36.590Z,4.30
2018-04-28T02:22:36.497Z,4.40
2018-04-28T02:23:36.440Z,4.20
2018-04-28T02:24:36.315Z,4.30
2018-04-28T02:25:36.224Z,4.70
2018-04-28T02:26:36.130Z,4.70
2018-04-28T02:27:36.043Z,4.10
2018-04-28T02:28:36.728Z,4.70
2018-04-28T02:29:35.854Z,4.40
2018-04-28T02:30:36.724Z,4.40
2018-04-28T02:31:35.669Z,4.50
2018-04-28T02:32:35.577Z,4.30
2018-04-28T02:33:35.515Z,4.00
2018-04-28T02:34:35.392Z,4.10
2018-04-28T02:35:35.305Z,4.20
2018-04-28T02:36:35.204Z,4.20
2018-04-28T02:37:35.115Z,4.50
2018-04-28T02:38:35.034Z,4.20
2018-04-28T02:39:34.960Z,3.80
2018-04-28T02:40:34.837Z,4.00
2018-04-28T02:41:34.744Z,4.00
2018-04-28T02:42:34.652Z,3.70
2018-04-28T02:43:34.563Z,4.10
2018-04-28T02:44:34.504Z,3.70
2018-04-28T02:45:34.378Z,4.00
2018-04-28T02:46:34.284Z,4.10
2018-04-28T02:47:34.189Z,4.00
2018-04-28T02:48:34.097Z,4.00
2018-04-28T02:49:34.034Z,3.80
2018-04-28T02:50:33.914Z,3.80
2018-04-28T02:51:33.817Z,3.50
2018-04-28T02:52:33.726Z,3.50
2018-04-28T02:53:33.636Z,3.30
2018-04-28T02:54:33.596Z,3.60
2018-04-28T02:55:33.454Z,3.60
2018-04-28T02:56:33.357Z,3.50
2018-04-28T02:57:33.266Z,3.90
2018-04-28T02:58:33.170Z,3.60
2018-04-28T02:59:33.078Z,3.10
2018-04-28T03:00:33.026Z,3.70
2018-04-28T03:01:32.894Z,3.30
2018-04-28T03:02:32.803Z,3.60
2018-04-28T03:03:32.706Z,3.50
2018-04-28T03:04:32.611Z,3.50
2018-04-28T03:05:32.549Z,3.00
2018-04-28T03:06:32.426Z,3.40
2018-04-28T03:07:32.334Z,3.40
2018-04-28T03:08:32.239Z,4.00
2018-04-28T03:09:32.149Z,3.80
2018-04-28T03:10:32.115Z,3.40
2018-04-28T03:11:31.967Z,3.50
2018-04-28T03:12:31.876Z,3.10
2018-04-28T03:13:31.784Z,3.50
2018-04-28T03:14:31.688Z,3.10
2018-04-28T03:15:31.645Z,3.40
2018-04-28T03:16:31.502Z,3.50
2018-04-28T03:17:31.408Z,3.40
2018-04-28T03:18:31.317Z,3.10
2018-04-28T03:19:31.226Z,3.10
2018-04-28T03:20:31.132Z,3.30
2018-04-28T03:21:31.071Z,3.30
2018-04-28T03:22:30.952Z,3.00
2018-04-28T03:23:30.856Z,3.10
2018-04-28T03:24:30.765Z,3.10
2018-04-28T03:25:30.671Z,3.00
2018-04-28T03:26:30.610Z,3.40
2018-04-28T03:27:30.486Z,3.30
2018-04-28T03:28:30.394Z,3.10
2018-04-28T03:29:30.304Z,3.00
2018-04-28T03:30:30.209Z,2.70
2018-04-28T03:31:30.176Z,3.10
2018-04-28T03:32:30.025Z,2.60
2018-04-28T03:33:29.935Z,3.00
2018-04-28T03:34:29.839Z,2.60
2018-04-28T03:35:29.747Z,2.80
2018-04-28T03:36:29.691Z,2.80
2018-04-28T03:37:29.571Z,2.50
2018-04-28T03:38:29.470Z,2.70
2018-04-28T03:39:29.376Z,2.70
2018-04-28T03:40:29.285Z,2.80
2018-04-28T03:41:29.201Z,2.90
2018-04-28T03:42:29.148Z,2.80
2018-04-28T03:43:29.009Z,2.80
2018-04-28T03:44:28.916Z,2.70
2018-04-28T03:45:28.919Z,2.50
2018-04-28T03:46:28.731Z,2.80
2018-04-28T03:47:28.638Z,2.90
2018-04-28T03:48:28.577Z,2.40
2018-04-28T03:49:28.454Z,2.30
2018-04-28T03:50:28.359Z,2.70
2018-04-28T03:51:28.264Z,2.60
2018-04-28T03:52:28.283Z,2.50
2018-04-28T03:53:28.194Z,2.50
2018-04-28T03:54:27.992Z,2.90
2018-04-28T03:55:27.897Z,2.80
2018-04-28T03:56:27.805Z,2.40
2018-04-28T03:57:27.714Z,2.90
2018-04-28T03:58:27.655Z,2.50
2018-04-28T03:59:27.624Z,2.40
2018-04-28T04:00:27.437Z,2.40
2018-04-28T04:01:27.353Z,2.50
2018-04-28T04:02:27.255Z,2.50
2018-04-28T04:03:27.193Z,2.50
2018-04-28T04:04:27.068Z,2.30
2018-04-28T04:05:26.977Z,2.50
2018-04-28T04:06:26.981Z,2.60
2018-04-28T04:07:26.794Z,2.40
2018-04-28T04:08:26.700Z,2.50
2018-04-28T04:09:26.637Z,2.60
2018-04-28T04:10:26.516Z,2.30
2018-04-28T04:11:26.423Z,2.50
2018-04-28T04:12:26.330Z,2.60
2018-04-28T04:13:26.338Z,2.40
2018-04-28T04:14:26.178Z,2.60
2018-04-28T04:15:26.053Z,2.60
2018-04-28T04:16:25.968Z,2.50
2018-04-28T04:17:25.871Z,2.60
2018-04-28T04:18:25.776Z,2.40
2018-04-28T04:19:25.683Z,2.50
2018-04-28T04:20:25.717Z,2.30
2018-04-28T04:21:25.498Z,2.70
2018-04-28T04:22:25.407Z,2.40
2018-04-28T04:23:25.315Z,2.50
2018-04-28T04:24:25.220Z,2.50
2018-04-28T04:25:25.163Z,2.40
2018-04-28T04:26:25.077Z,2.50
2018-04-28T04:27:24.943Z,2.30
2018-04-28T04:28:24.853Z,2.40
2018-04-28T04:29:24.760Z,2.60
2018-04-28T04:30:24.700Z,2.30
2018-04-28T04:31:24.577Z,2.50
2018-04-28T04:32:24.486Z,2.50
2018-04-28T04:33:24.390Z,2.70
2018-04-28T04:34:24.301Z,2.90
2018-04-28T04:35:24.208Z,2.50
2018-04-28T04:36:24.146Z,2.60
2018-04-28T04:37:24.023Z,2.70
2018-04-28T04:38:23.931Z,2.50
2018-04-28T04:39:23.839Z,2.90
2018-04-28T04:40:23.752Z,2.80
2018-04-28T04:41:23.687Z,2.60
2018-04-28T04:42:23.664Z,2.80
2018-04-28T04:43:23.473Z,2.60
2018-04-28T04:44:23.377Z,2.40
2018-04-28T04:45:23.286Z,2.60
2018-04-28T04:46:23.224Z,2.50
2018-04-28T04:47:23.103Z,2.60
2018-04-28T04:48:23.011Z,2.30
2018-04-28T04:49:23.017Z,2.50
2018-04-28T04:50:22.829Z,2.80
2018-04-28T04:51:22.788Z,2.40
2018-04-28T04:52:22.645Z,2.80
2018-04-28T04:53:22.563Z,2.40
2018-04-28T04:54:22.462Z,2.70
2018-04-28T04:55:22.367Z,2.60
2018-04-28T04:56:22.376Z,2.30
2018-04-28T04:57:22.217Z,2.10
2018-04-28T04:58:22.097Z,2.40
2018-04-28T04:59:22.004Z,2.30
2018-04-28T05:00:21.911Z,2.30
2018-04-28T05:01:21.823Z,2.60
2018-04-28T05:02:21.729Z,3.00
2018-04-28T05:03:21.754Z,2.20
2018-04-28T05:04:21.545Z,2.20
2018-04-28T05:05:21.455Z,2.50
2018-04-28T05:06:21.361Z,2.40
2018-04-28T05:07:21.269Z,2.30
2018-04-28T05:08:21.212Z,2.40
2018-04-28T05:09:21.091Z,2.20
2018-04-28T05:10:20.997Z,2.50
2018-04-28T05:11:20.903Z,2.20
2018-04-28T05:12:20.812Z,2.70
2018-04-28T05:13:20.755Z,2.40
2018-04-28T05:14:20.640Z,2.20
2018-04-28T05:15:20.538Z,2.20
2018-04-28T05:16:20.445Z,2.20
2018-04-28T05:17:20.357Z,2.40
2018-04-28T05:18:20.317Z,2.40
2018-04-28T05:19:20.174Z,2.10
2018-04-28T05:20:20.081Z,2.30
2018-04-28T05:21:20.011Z,2.60
2018-04-28T05:22:19.900Z,2.40
2018-04-28T05:23:19.828Z,2.40
2018-04-28T05:24:19.751Z,2.40
2018-04-28T05:25:19.626Z,2.30
2018-04-28T05:26:19.534Z,2.20
2018-04-28T05:27:19.445Z,2.20
2018-04-28T05:28:19.356Z,2.20
2018-04-28T05:29:19.293Z,2.30
2018-04-28T05:30:19.174Z,2.20
2018-04-28T05:31:19.080Z,2.10
2018-04-28T05:32:18.989Z,2.20
2018-04-28T05:33:18.900Z,1.90
2018-04-28T05:34:18.819Z,2.30
2018-04-28T05:35:18.749Z,2.20
2018-04-28T05:36:18.627Z,2.00
2018-04-28T05:37:18.545Z,2.10
2018-04-28T05:38:18.446Z,2.30
2018-04-28T05:39:18.355Z,2.30
2018-04-28T05:40:18.309Z,2.00
2018-04-28T05:41:18.176Z,2.50
2018-04-28T05:42:18.086Z,2.10
2018-04-28T05:43:17.993Z,2.20
2018-04-28T05:44:17.904Z,2.20
2018-04-28T05:45:17.814Z,2.20
2018-04-28T05:46:17.754Z,2.20
2018-04-28T05:47:17.631Z,2.00
2018-04-28T05:48:17.626Z,1.80
2018-04-28T05:49:17.453Z,1.80
2018-04-28T05:50:17.364Z,2.00
2018-04-28T05:51:17.304Z,2.10
2018-04-28T05:52:17.183Z,2.10
2018-04-28T05:53:17.096Z,2.10
2018-04-28T05:54:17.007Z,2.30
2018-04-28T05:55:16.923Z,2.10
2018-04-28T05:56:16.825Z,2.10
2018-04-28T05:57:16.764Z,2.20
2018-04-28T05:58:16.646Z,2.10
2018-04-28T05:59:16.554Z,2.20
2018-04-28T06:00:16.470Z,2.20
2018-04-28T06:01:16.374Z,2.30
2018-04-28T06:02:16.321Z,2.20
2018-04-28T06:03:16.194Z,2.20
2018-04-28T06:04:16.108Z,2.10
2018-04-28T06:05:16.016Z,2.10
2018-04-28T06:06:15.929Z,2.10
2018-04-28T06:07:15.867Z,2.20
2018-04-28T06:08:15.748Z,2.20
2018-04-28T06:09:15.656Z,2.00
2018-04-28T06:10:15.570Z,2.20
2018-04-28T06:11:15.478Z,2.10
2018-04-28T06:12:15.421Z,1.90
2018-04-28T06:13:15.305Z,2.10
2018-04-28T06:14:15.209Z,2.10
2018-04-28T06:15:15.120Z,2.10
2018-04-28T06:16:15.029Z,2.20
2018-04-28T06:17:14.976Z,1.90
2018-04-28T06:18:14.853Z,2.20
2018-04-28T06:19:14.761Z,2.20
2018-04-28T06:20:14.732Z,2.10
2018-04-28T06:21:14.584Z,2.40
2018-04-28T06:22:14.498Z,2.30
2018-04-28T06:23:14.438Z,2.20
2018-04-28T06:24:14.316Z,2.20
2018-04-28T06:25:14.229Z,6.50
2018-04-28T06:26:14.137Z,3.50
2018-04-28T06:27:14.047Z,2.30
2018-04-28T06:28:13.989Z,7.10
2018-04-28T06:29:13.897Z,2.50
2018-04-28T06:30:13.782Z,2.60
2018-04-28T06:31:13.692Z,4.70
2018-04-28T06:32:13.603Z,3.10
2018-04-28T06:33:13.651Z,3.30
2018-04-28T06:34:13.424Z,14.00
2018-04-28T06:35:13.335Z,2.40
2018-04-28T06:36:13.248Z,2.10
2018-04-28T06:37:13.158Z,2.10
2018-04-28T06:38:13.117Z,2.50
2018-04-28T06:39:12.977Z,2.10
2018-04-28T06:40:12.993Z,2.10
2018-04-28T06:41:12.825Z,2.80
2018-04-28T06:42:12.714Z,2.00
2018-04-28T06:43:12.663Z,2.10
2018-04-28T06:44:12.539Z,2.10
2018-04-28T06:45:12.444Z,2.00
2018-04-28T06:46:12.357Z,2.20
2018-04-28T06:47:12.365Z,2.40
2018-04-28T06:48:12.181Z,2.20
2018-04-28T06:49:12.124Z,2.30
2018-04-28T06:50:12.004Z,2.30
2018-04-28T06:51:11.915Z,2.30
2018-04-28T06:52:11.827Z,2.10
2018-04-28T06:53:11.740Z,2.20
2018-04-28T06:54:11.777Z,2.40
2018-04-28T06:55:11.562Z,2.10
2018-04-28T06:56:11.476Z,2.10
2018-04-28T06:57:11.387Z,2.30
2018-04-28T06:58:11.299Z,2.20
2018-04-28T06:59:11.257Z,2.30
2018-04-28T07:00:11.120Z,2.30
2018-04-28T07:01:11.138Z,2.10
2018-04-28T07:02:10.946Z,2.00
2018-04-28T07:03:10.860Z,2.20
2018-04-28T07:04:10.801Z,2.10
2018-04-28T07:05:10.684Z,2.20
2018-04-28T07:06:10.595Z,2.00
2018-04-28T07:07:10.507Z,1.80
2018-04-28T07:08:10.519Z,2.10
2018-04-28T07:09:10.335Z,2.20
2018-04-28T07:10:10.280Z,2.00
2018-04-28T07:11:10.159Z,1.90
2018-04-28T07:12:10.079Z,2.10
2018-04-28T07:13:09.985Z,2.00
2018-04-28T07:14:09.899Z,1.90
2018-04-28T07:15:09.943Z,2.10
2018-04-28T07:16:09.725Z,2.00
2018-04-28T07:17:09.636Z,2.10
2018-04-28T07:18:09.554Z,2.10
2018-04-28T07:19:09.465Z,2.00
2018-04-28T07:20:09.439Z,2.20
2018-04-28T07:21:09.373Z,1.90
2018-04-28T07:22:09.300Z,2.10
2018-04-28T07:23:09.115Z,2.00
2018-04-28T07:24:09.032Z,2.10
2018-04-28T07:25:08.978Z,1.70
2018-04-28T07:26:08.860Z,2.00
2018-04-28T07:27:08.776Z,1.80
2018-04-28T07:28:08.686Z,1.80
2018-04-28T07:29:08.699Z,2.00
2018-04-28T07:30:08.553Z,1.90
2018-04-28T07:31:08.436Z,2.30
2018-04-28T07:32:08.343Z,2.00
2018-04-28T07:33:08.260Z,2.10
2018-04-28T07:34:08.178Z,1.80
2018-04-28T07:35:08.119Z,2.00
2018-04-28T07:36:08.102Z,1.90
2018-04-28T07:37:07.989Z,2.20
2018-04-28T07:38:07.832Z,2.10
2018-04-28T07:39:07.752Z,2.00
2018-04-28T07:40:07.694Z,2.20
2018-04-28T07:41:07.583Z,2.20
2018-04-28T07:42:07.493Z,2.00
2018-04-28T07:43:07.528Z,1.70
2018-04-28T07:44:07.325Z,1.80
2018-04-28T07:45:07.275Z,1.80
2018-04-28T07:46:07.159Z,2.10
2018-04-28T07:47:07.072Z,2.00
2018-04-28T07:48:06.990Z,2.00
2018-04-28T07:49:06.905Z,1.80
2018-04-28T07:50:06.948Z,1.90
2018-04-28T07:51:06.735Z,1.90
2018-04-28T07:52:06.658Z,1.90
2018-04-28T07:53:06.571Z,2.00
2018-04-28T07:54:06.488Z,1.90
2018-04-28T07:55:06.433Z,1.90
2018-04-28T07:56:06.443Z,1.80
2018-04-28T07:57:06.237Z,1.90
2018-04-28T07:58:06.149Z,2.00
2018-04-28T07:59:06.065Z,1.80
2018-04-28T08:00:06.012Z,1.90
2018-04-28T08:01:05.900Z,2.10
2018-04-28T08:02:05.817Z,1.70
2018-04-28T08:03:05.730Z,2.00
2018-04-28T08:04:05.650Z,1.80
2018-04-28T08:05:05.610Z,1.80
2018-04-28T08:06:05.483Z,1.60
2018-04-28T08:07:05.455Z,1.80
2018-04-28T08:08:05.317Z,2.00
2018-04-28T08:09:05.235Z,1.90
2018-04-28T08:10:05.157Z,2.00
2018-04-28T08:11:05.104Z,1.90
2018-04-28T08:12:04.989Z,1.90
2018-04-28T08:13:04.904Z,2.00
2018-04-28T08:14:04.823Z,1.80
2018-04-28T08:15:04.745Z,2.00
2018-04-28T08:16:04.689Z,1.90
2018-04-28T08:17:04.577Z,1.70
2018-04-28T08:18:04.493Z,2.00
2018-04-28T08:19:04.412Z,2.00
2018-04-28T08:20:04.333Z,1.80
2018-04-28T08:21:04.277Z,1.80
2018-04-28T08:22:04.168Z,1.80
2018-04-28T08:23:04.084Z,1.70
2018-04-28T08:24:04.002Z,1.60
2018-04-28T08:25:03.924Z,1.80
2018-04-28T08:26:03.875Z,1.70
2018-04-28T08:27:03.758Z,1.90
2018-04-28T08:28:03.677Z,1.70
2018-04-28T08:29:03.600Z,1.80
2018-04-28T08:30:03.514Z,1.90
2018-04-28T08:31:03.461Z,1.90
2018-04-28T08:32:03.354Z,1.70
2018-04-28T08:33:03.270Z,2.20
2018-04-28T08:34:03.189Z,1.80
2018-04-28T08:35:03.106Z,1.70
2018-04-28T08:36:03.058Z,1.90
2018-04-28T08:37:02.982Z,1.80
2018-04-28T08:38:02.867Z,1.60
2018-04-28T08:39:02.781Z,1.60
2018-04-28T08:40:02.703Z,1.90
2018-04-28T08:41:02.653Z,1.80
2018-04-28T08:42:02.541Z,1.60
2018-04-28T08:43:02.455Z,2.00
2018-04-28T08:44:02.379Z,1.80
2018-04-28T08:45:02.294Z,2.20
2018-04-28T08:46:02.250Z,2.10
2018-04-28T08:47:02.133Z,1.60
2018-04-28T08:48:02.064Z,1.90
2018-04-28T08:49:01.975Z,2.00
2018-04-28T08:50:01.891Z,2.10
2018-04-28T08:51:01.926Z,1.70
2018-04-28T08:52:01.731Z,1.90
2018-04-28T08:53:01.653Z,2.10
2018-04-28T08:54:01.570Z,1.70
2018-04-28T08:55:01.491Z,1.80
2018-04-28T08:56:01.439Z,1.90
2018-04-28T08:57:01.326Z,1.90
2018-04-28T08:58:01.251Z,1.70
2018-04-28T08:59:01.170Z,2.10
2018-04-28T09:00:01.091Z,2.10
2018-04-28T09:01:01.036Z,1.90
2018-04-28T09:02:00.926Z,1.90
2018-04-28T09:03:00.844Z,2.00
2018-04-28T09:04:00.768Z,2.00
2018-04-28T09:05:00.685Z,2.00
2018-04-28T09:06:00.605Z,1.90
2018-04-28T09:07:00.563Z,1.80
2018-04-28T09:08:00.443Z,2.10
2018-04-28T09:09:00.361Z,1.90
2018-04-28T09:10:00.285Z,1.70
2018-04-28T09:11:00.204Z,1.60
2018-04-28T09:12:00.155Z,1.90
2018-04-28T09:13:00.155Z,1.80
2018-04-28T09:13:59.963Z,2.00
2018-04-28T09:14:59.929Z,1.80
2018-04-28T09:15:59.800Z,2.10
2018-04-28T09:16:59.754Z,2.00
2018-04-28T09:17:59.641Z,2.10
2018-04-28T09:18:59.558Z,1.70
2018-04-28T09:19:59.573Z,1.80
2018-04-28T09:20:59.398Z,2.00
2018-04-28T09:21:59.356Z,2.00
2018-04-28T09:22:59.238Z,1.80
2018-04-28T09:23:59.156Z,2.30
2018-04-28T09:24:59.077Z,1.90
2018-04-28T09:25:58.999Z,1.80
2018-04-28T09:26:59.047Z,1.70
2018-04-28T09:27:58.836Z,2.10
2018-04-28T09:28:58.758Z,1.50
2018-04-28T09:29:58.679Z,1.90
2018-04-28T09:30:58.601Z,1.70
2018-04-28T09:31:58.548Z,1.80
2018-04-28T09:32:58.490Z,1.80
2018-04-28T09:33:58.454Z,1.80
2018-04-28T09:34:58.284Z,1.90
2018-04-28T09:35:58.200Z,1.80
2018-04-28T09:36:58.149Z,1.50
2018-04-28T09:37:58.048Z,1.70
2018-04-28T09:38:57.961Z,2.00
2018-04-28T09:39:57.972Z,1.70
2018-04-28T09:40:57.897Z,1.80
2018-04-28T09:41:57.753Z,1.80
2018-04-28T09:42:57.642Z,1.70
2018-04-28T09:43:57.561Z,1.90
2018-04-28T09:44:57.484Z,1.50
2018-04-28T09:45:57.405Z,1.60
2018-04-28T09:46:57.353Z,1.90
2018-04-28T09:47:57.340Z,1.90
2018-04-28T09:48:57.165Z,1.70
2018-04-28T09:49:57.088Z,1.80
2018-04-28T09:50:57.006Z,1.70
2018-04-28T09:51:56.928Z,1.50
2018-04-28T09:52:56.879Z,1.60
2018-04-28T09:53:56.771Z,1.60
2018-04-28T09:54:56.792Z,1.90
2018-04-28T09:55:56.611Z,1.60
2018-04-28T09:56:56.537Z,1.80
2018-04-28T09:57:56.487Z,1.60
2018-04-28T09:58:56.435Z,1.70
2018-04-28T09:59:56.295Z,1.80
2018-04-28T10:00:56.215Z,1.70
2018-04-28T10:01:56.275Z,1.80
2018-04-28T10:02:56.089Z,1.70
2018-04-28T10:03:55.981Z,1.50
2018-04-28T10:04:55.901Z,3.10
2018-04-28T10:05:55.888Z,6.80
2018-04-28T10:06:55.743Z,2.00
2018-04-28T10:07:55.697Z,1.80
2018-04-28T10:08:55.682Z,1.80
2018-04-28T10:09:55.511Z,1.80
2018-04-28T10:10:55.427Z,1.90
2018-04-28T10:11:55.356Z,1.90
2018-04-28T10:12:55.336Z,1.90
2018-04-28T10:13:55.190Z,1.70
2018-04-28T10:14:55.110Z,1.70
2018-04-28T10:15:55.032Z,1.70
2018-04-28T10:16:54.952Z,1.80
2018-04-28T10:17:54.903Z,1.70
2018-04-28T10:18:54.795Z,1.70
2018-04-28T10:19:54.716Z,1.70
2018-04-28T10:20:54.636Z,1.90
2018-04-28T10:21:54.559Z,1.80
2018-04-28T10:22:54.509Z,1.60
2018-04-28T10:23:54.399Z,1.80
2018-04-28T10:24:54.321Z,2.00
2018-04-28T10:25:54.240Z,2.10
2018-04-28T10:26:54.162Z,2.60
2018-04-28T10:27:54.115Z,2.00
2018-04-28T10:28:54.007Z,2.00
2018-04-28T10:29:53.927Z,2.10
2018-04-28T10:30:54.163Z,2.10
2018-04-28T10:31:53.770Z,2.20
2018-04-28T10:32:53.726Z,2.20
2018-04-28T10:33:53.612Z,2.00
2018-04-28T10:34:53.530Z,2.10
2018-04-28T10:35:53.458Z,1.90
2018-04-28T10:36:53.374Z,2.00
2018-04-28T10:37:53.425Z,2.20
2018-04-28T10:38:53.216Z,2.10
2018-04-28T10:39:53.137Z,1.70
2018-04-28T10:40:53.058Z,2.20
2018-04-28T10:41:52.977Z,2.10
2018-04-28T10:42:52.934Z,2.00
2018-04-28T10:43:52.913Z,2.00
2018-04-28T10:44:52.739Z,2.20
2018-04-28T10:45:52.658Z,2.00
2018-04-28T10:46:52.577Z,2.10
2018-04-28T10:47:52.532Z,2.00
2018-04-28T10:48:52.419Z,2.00
2018-04-28T10:49:52.338Z,2.20
2018-04-28T10:50:52.257Z,2.20
2018-04-28T10:51:52.176Z,2.20
2018-04-28T10:52:52.098Z,2.50
2018-04-28T10:53:52.138Z,2.20
2018-04-28T10:54:51.934Z,2.20
2018-04-28T10:55:51.852Z,1.90
2018-04-28T10:56:51.772Z,2.20
2018-04-28T10:57:51.692Z,2.30
2018-04-28T10:58:51.641Z,2.40
2018-04-28T10:59:51.536Z,2.10
2018-04-28T11:00:51.448Z,1.90
2018-04-28T11:01:51.366Z,1.90
2018-04-28T11:02:51.284Z,1.60
2018-04-28T11:03:51.232Z,2.20
2018-04-28T11:04:51.117Z,2.10
2018-04-28T11:05:51.036Z,2.10
2018-04-28T11:06:50.958Z,1.90
2018-04-28T11:07:50.872Z,1.90
2018-04-28T11:08:50.821Z,2.20
2018-04-28T11:09:50.712Z,1.90
2018-04-28T11:10:50.626Z,1.90
2018-04-28T11:11:50.545Z,1.80
2018-04-28T11:12:50.467Z,2.00
2018-04-28T11:13:50.415Z,2.00
2018-04-28T11:14:50.299Z,1.90
2018-04-28T11:15:50.216Z,2.10
2018-04-28T11:16:50.134Z,2.00
2018-04-28T11:17:50.051Z,1.90
2018-04-28T11:18:50.000Z,1.70
2018-04-28T11:19:49.979Z,2.20
2018-04-28T11:20:49.801Z,2.30
2018-04-28T11:21:49.719Z,2.10
2018-04-28T11:22:49.633Z,1.90
2018-04-28T11:23:49.582Z,1.80
2018-04-28T11:24:49.468Z,1.90
2018-04-28T11:25:49.425Z,2.10
2018-04-28T11:26:49.301Z,2.00
2018-04-28T11:27:49.220Z,2.20
2018-04-28T11:28:49.164Z,2.00
2018-04-28T11:29:49.053Z,2.10
2018-04-28T11:30:48.964Z,1.90
2018-04-28T11:31:48.882Z,2.00
2018-04-28T11:32:48.872Z,1.90
2018-04-28T11:33:48.744Z,2.10
2018-04-28T11:34:48.627Z,2.30
2018-04-28T11:35:48.542Z,2.30
2018-04-28T11:36:48.465Z,2.10
2018-04-28T11:37:48.378Z,2.00
2018-04-28T11:38:48.327Z,1.90
2018-04-28T11:39:48.205Z,2.10
2018-04-28T11:40:48.119Z,2.20
2018-04-28T11:41:48.038Z,2.10
2018-04-28T11:42:47.950Z,1.80
2018-04-28T11:43:47.898Z,2.00
2018-04-28T11:44:47.783Z,2.30
2018-04-28T11:45:47.699Z,2.00
2018-04-28T11:46:47.617Z,2.00
2018-04-28T11:47:47.527Z,2.00
2018-04-28T11:48:47.475Z,2.20
2018-04-28T11:49:47.361Z,2.10
2018-04-28T11:50:47.276Z,1.90
2018-04-28T11:51:47.186Z,2.00
2018-04-28T11:52:47.105Z,1.90
2018-04-28T11:53:47.053Z,1.90
2018-04-28T11:54:46.934Z,1.90
2018-04-28T11:55:46.849Z,2.00
2018-04-28T11:56:46.764Z,2.10
2018-04-28T11:57:46.678Z,1.80
2018-04-28T11:58:46.596Z,2.00
2018-04-28T11:59:46.541Z,2.00
2018-04-28T12:00:46.521Z,2.00
2018-04-28T12:01:46.338Z,1.90
2018-04-28T12:02:46.257Z,2.20
2018-04-28T12:03:46.172Z,2.20
2018-04-28T12:04:46.118Z,2.00
2018-04-28T12:05:46.035Z,1.70
2018-04-28T12:06:45.915Z,1.80
2018-04-28T12:07:45.831Z,1.90
2018-04-28T12:08:45.748Z,2.20
2018-04-28T12:09:45.693Z,2.00
2018-04-28T12:10:45.578Z,2.00
2018-04-28T12:11:45.496Z,1.80
2018-04-28T12:12:45.411Z,1.70
2018-04-28T12:13:45.325Z,1.80
2018-04-28T12:14:45.369Z,1.70
2018-04-28T12:15:45.158Z,2.20
2018-04-28T12:16:45.079Z,1.90
2018-04-28T12:17:44.989Z,1.80
2018-04-28T12:18:44.904Z,1.90
2018-04-28T12:19:44.852Z,2.20
2018-04-28T12:20:44.737Z,1.90
2018-04-28T12:21:44.751Z,1.90
2018-04-28T12:22:44.571Z,2.00
2018-04-28T12:23:44.486Z,1.90
2018-04-28T12:24:44.432Z,1.90
2018-04-28T12:25:44.326Z,2.00
2018-04-28T12:26:44.233Z,2.00
2018-04-28T12:27:44.149Z,2.30
2018-04-28T12:28:44.167Z,1.90
2018-04-28T12:29:44.071Z,1.90
2018-04-28T12:30:43.910Z,2.30
2018-04-28T12:31:43.817Z,2.30
2018-04-28T12:32:43.732Z,2.10
2018-04-28T12:33:43.648Z,1.70
2018-04-28T12:34:43.596Z,1.80
2018-04-28T12:35:43.574Z,1.60
2018-04-28T12:36:43.398Z,1.90
2018-04-28T12:37:43.314Z,2.00
2018-04-28T12:38:43.227Z,2.40
2018-04-28T12:39:43.183Z,2.20
2018-04-28T12:40:43.077Z,2.10
2018-04-28T12:41:42.979Z,1.90
2018-04-28T12:42:42.992Z,2.10
2018-04-28T12:43:42.811Z,2.40
2018-04-28T12:44:42.762Z,2.70
2018-04-28T12:45:42.645Z,1.90
2018-04-28T12:46:42.561Z,2.20
2018-04-28T12:47:42.478Z,2.70
2018-04-28T12:48:42.395Z,4.60
2018-04-28T12:49:42.445Z,3.90
2018-04-28T12:50:42.247Z,4.20
2018-04-28T12:51:42.144Z,1.80
2018-04-28T12:52:42.061Z,6.30
2018-04-28T12:53:41.979Z,3.70
2018-04-28T12:54:41.928Z,2.90
2018-04-28T12:55:41.815Z,3.80
2018-04-28T12:56:41.833Z,3.10
2018-04-28T12:57:41.653Z,2.30
2018-04-28T12:58:41.568Z,2.60
2018-04-28T12:59:41.515Z,2.90
2018-04-28T13:00:41.406Z,3.40
2018-04-28T13:01:41.320Z,3.90
2018-04-28T13:02:41.244Z,2.90
2018-04-28T13:03:41.279Z,3.70
2018-04-28T13:04:41.073Z,2.60
2018-04-28T13:05:41.022Z,2.10
2018-04-28T13:06:40.910Z,2.40
2018-04-28T13:07:40.827Z,2.10
2018-04-28T13:08:40.744Z,1.90
2018-04-28T13:09:40.760Z,2.00
2018-04-28T13:10:40.611Z,2.00
2018-04-28T13:11:40.496Z,1.90
2018-04-28T13:12:40.416Z,2.00
2018-04-28T13:13:40.332Z,2.10
2018-04-28T13:14:40.248Z,2.10
2018-04-28T13:15:40.194Z,1.90
2018-04-28T13:16:40.084Z,1.90
2018-04-28T13:17:40.100Z,2.10